Terminal Aerodrome Forecast
Issued by NWS

Home | Current Version | Previous Version | Graphics & Text | Print | Product List | Glossary On
Versions: 1 2 3 4 5 6 7 8 9 10 11 12 13
000
FTUS43 KICT 240535
TAFHUT
TAF
KHUT 240535Z 2406/2506 34015G23KT P6SM OVC025
      TEMPO 2406/2409 5SM -RASN BR OVC012
     FM241600 32015KT P6SM SCT020 BKN035
     FM242100 27010KT P6SM SKC
     FM250300 19007KT P6SM SKC=

USA.gov is the U.S. government's official web portal to all federal, state and local government web resources and services.